PWSweather.com
Personal Weather Stations
Station Observations
KNCCHINA3
Red Tractor Trail, China Grove, NC 28023

Red Tractor TrailChina Grove, NC 28023

Lat: 35.59751, Lon: -80.60201

Elevation: 800

Station Type: Oregon Scientific WMR 968

http://www.joesweathergarage.com

High Low Average
Temperature 71.8°F22.1°C 44.5°F6.9°C 55.0°F12.8°C
Dew Point 44.4°F6.9°C 33.0°F0.6°C 39.2°F4.0°C
Winds 17.0 mph 27.4 kmh Calm Calm 5.0 mph E8.0 kmh E
Wind Gusts 25.0 mph40.2 kmh -- 9.0 mph14.5 kmh
Humidity 85% 34% 59%
Pressure 30.21 in1023.0 mb 30.06 in1017.9 mb -
Precipitation 0.00 in0.0 mm - -
Hour Temp Dew Point Humidity Winds Wind Gusts Pressure Precip Precip Rate Daily Precip Total
12:01 AM 51.0°F10.6°C 43.0°F6.1°C 74% 2.4 mph ESE3.9 kmh ESE 4.0 mph6.4 kmh 30.15 in1021.0 mb 0.00 in0.0 mm 0.00 in0.0 mm 0.00 in0.0 mm
12:06 AM 51.2°F10.7°C 43.2°F6.2°C 74% Calm Calm 4.0 mph6.4 kmh 30.15 in1021.0 mb 0.00 in0.0 mm 0.00 in0.0 mm 0.00 in0.0 mm
12:11 AM 51.0°F10.6°C 43.0°F6.1°C 74% Calm Calm -- 30.12 in1020.0 mb 0.00 in0.0 mm 0.00 in0.0 mm 0.00 in0.0 mm
12:16 AM 51.0°F10.6°C 43.0°F6.1°C 74% 3.0 mph ESE4.8 kmh ESE 3.2 mph5.1 kmh 30.12 in1020.0 mb 0.00 in0.0 mm 0.00 in0.0 mm 0.00 in0.0 mm
12:22 AM 51.0°F10.6°C 43.3°F6.3°C 75% 1.9 mph ENE3.1 kmh ENE 4.4 mph7.1 kmh 30.12 in1020.0 mb 0.00 in0.0 mm 0.00 in0.0 mm 0.00 in0.0 mm
12:27 AM 51.0°F10.6°C 43.7°F6.5°C 76% 3.0 mph ENE4.8 kmh ENE 4.4 mph7.1 kmh 30.12 in1020.0 mb 0.00 in0.0 mm 0.00 in0.0 mm 0.00 in0.0 mm
12:32 AM 51.0°F10.6°C 43.3°F6.3°C 75% 1.9 mph ENE3.1 kmh ENE 4.0 mph6.4 kmh 30.12 in1020.0 mb 0.00 in0.0 mm 0.00 in0.0 mm 0.00 in0.0 mm
12:37 AM 51.0°F10.6°C 43.7°F6.5°C 76% Calm Calm 4.0 mph6.4 kmh 30.12 in1020.0 mb 0.00 in0.0 mm 0.00 in0.0 mm 0.00 in0.0 mm
12:42 AM 50.8°F10.4°C 43.1°F6.2°C 75% 3.6 mph ENE5.8 kmh ENE 4.4 mph7.1 kmh 30.12 in1020.0 mb 0.00 in0.0 mm 0.00 in0.0 mm 0.00 in0.0 mm
12:47 AM 50.8°F10.4°C 43.5°F6.4°C 76% 3.5 mph ENE5.6 kmh ENE 5.0 mph8.0 kmh 30.12 in1020.0 mb 0.00 in0.0 mm 0.00 in0.0 mm 0.00 in0.0 mm
12:53 AM 50.6°F10.3°C 44.3°F6.8°C 79% 6.1 mph NNE9.8 kmh NNE 7.2 mph11.6 kmh 30.12 in1020.0 mb 0.00 in0.0 mm 0.00 in0.0 mm 0.00 in0.0 mm
12:58 AM 50.6°F10.3°C 44.3°F6.8°C 79% 6.1 mph NNE9.8 kmh NNE 8.0 mph12.9 kmh 30.12 in1020.0 mb 0.00 in0.0 mm 0.00 in0.0 mm 0.00 in0.0 mm
01:03 AM 50.4°F10.2°C 44.1°F6.7°C 79% 3.8 mph N6.1 kmh N 8.0 mph12.9 kmh 30.12 in1020.0 mb 0.00 in0.0 mm 0.00 in0.0 mm 0.00 in0.0 mm
01:08 AM 50.4°F10.2°C 43.8°F6.6°C 78% 4.8 mph NNE7.7 kmh NNE 5.8 mph9.3 kmh 30.12 in1020.0 mb 0.00 in0.0 mm 0.00 in0.0 mm 0.00 in0.0 mm
01:13 AM 50.3°F10.2°C 43.7°F6.5°C 78% 3.6 mph NE5.8 kmh NE 5.8 mph9.3 kmh 30.12 in1020.0 mb 0.00 in0.0 mm 0.00 in0.0 mm 0.00 in0.0 mm
01:18 AM 50.3°F10.2°C 43.7°F6.5°C 78% 3.4 mph NNE5.5 kmh NNE 6.2 mph10.0 kmh 30.12 in1020.0 mb 0.00 in0.0 mm 0.00 in0.0 mm 0.00 in0.0 mm
01:23 AM 50.3°F10.2°C 44.0°F6.7°C 79% 5.0 mph NNE8.0 kmh NNE 7.6 mph12.2 kmh 30.12 in1020.0 mb 0.00 in0.0 mm 0.00 in0.0 mm 0.00 in0.0 mm
01:28 AM 50.1°F10.1°C 43.8°F6.6°C 79% Calm Calm 7.6 mph12.2 kmh 30.12 in1020.0 mb 0.00 in0.0 mm 0.00 in0.0 mm 0.00 in0.0 mm
01:33 AM 50.1°F10.1°C 43.5°F6.4°C 78% 4.1 mph NE6.6 kmh NE 5.8 mph9.3 kmh 30.12 in1020.0 mb 0.00 in0.0 mm 0.00 in0.0 mm 0.00 in0.0 mm
01:38 AM 49.9°F9.9°C 43.6°F6.4°C 79% 2.9 mph 4.7 kmh 5.4 mph8.7 kmh 30.12 in1020.0 mb 0.00 in0.0 mm 0.00 in0.0 mm 0.00 in0.0 mm
01:44 AM 49.9°F9.9°C 43.6°F6.4°C 79% 3.8 mph NNE6.1 kmh NNE 5.4 mph8.7 kmh 30.12 in1020.0 mb 0.00 in0.0 mm 0.00 in0.0 mm 0.00 in0.0 mm
01:49 AM 49.9°F9.9°C 43.9°F6.6°C 80% 5.4 mph NNE8.7 kmh NNE 7.6 mph12.2 kmh 30.12 in1020.0 mb 0.00 in0.0 mm 0.00 in0.0 mm 0.00 in0.0 mm
01:57 AM 49.7°F9.8°C 43.7°F6.5°C 80% 3.6 mph NNE5.8 kmh NNE 7.6 mph12.2 kmh 30.12 in1020.0 mb 0.00 in0.0 mm 0.00 in0.0 mm 0.00 in0.0 mm
02:02 AM 49.5°F9.7°C 43.8°F6.6°C 81% 4.8 mph NE7.7 kmh NE 6.2 mph10.0 kmh 30.12 in1020.0 mb 0.00 in0.0 mm 0.00 in0.0 mm 0.00 in0.0 mm
02:07 AM 49.4°F9.7°C 43.8°F6.6°C 81% 2.1 mph NE3.4 kmh NE 6.2 mph10.0 kmh 30.12 in1020.0 mb 0.00 in0.0 mm 0.00 in0.0 mm 0.00 in0.0 mm
02:12 AM 49.2°F9.6°C 43.6°F6.4°C 81% Calm Calm 4.0 mph6.4 kmh 30.12 in1020.0 mb 0.00 in0.0 mm 0.00 in0.0 mm 0.00 in0.0 mm
02:17 AM 49.0°F9.4°C 43.0°F6.1°C 80% Calm Calm 2.2 mph3.5 kmh 30.12 in1020.0 mb 0.00 in0.0 mm 0.00 in0.0 mm 0.00 in0.0 mm
02:22 AM 49.0°F9.4°C 43.4°F6.3°C 81% 2.1 mph 3.4 kmh 4.4 mph7.1 kmh 30.12 in1020.0 mb 0.00 in0.0 mm 0.00 in0.0 mm 0.00 in0.0 mm
02:27 AM 49.0°F9.4°C 43.4°F6.3°C 81% 4.4 mph NNE7.1 kmh NNE 5.8 mph9.3 kmh 30.12 in1020.0 mb 0.00 in0.0 mm 0.00 in0.0 mm 0.00 in0.0 mm
02:32 AM 49.0°F9.4°C 43.7°F6.5°C 82% 2.2 mph NNE3.5 kmh NNE 5.8 mph9.3 kmh 30.12 in1020.0 mb 0.00 in0.0 mm 0.00 in0.0 mm 0.00 in0.0 mm
02:38 AM 49.0°F9.4°C 43.7°F6.5°C 82% Calm Calm 5.0 mph8.0 kmh 30.12 in1020.0 mb 0.00 in0.0 mm 0.00 in0.0 mm 0.00 in0.0 mm
02:43 AM 49.0°F9.4°C 43.7°F6.5°C 82% 4.8 mph N7.7 kmh N 5.8 mph9.3 kmh 30.12 in1020.0 mb 0.00 in0.0 mm 0.00 in0.0 mm 0.00 in0.0 mm
02:50 AM 49.0°F9.4°C 44.3°F6.8°C 84% 7.5 mph NNE12.1 kmh NNE 9.8 mph15.8 kmh 30.12 in1020.0 mb 0.00 in0.0 mm 0.00 in0.0 mm 0.00 in0.0 mm
02:55 AM 48.8°F9.3°C 44.4°F6.9°C 85% 9.0 mph N14.5 kmh N 13.0 mph20.9 kmh 30.09 in1019.0 mb 0.00 in0.0 mm 0.00 in0.0 mm 0.00 in0.0 mm
03:01 AM 48.6°F9.2°C 44.2°F6.8°C 85% 10.0 mph NNE16.1 kmh NNE 14.8 mph23.8 kmh 30.09 in1019.0 mb 0.00 in0.0 mm 0.00 in0.0 mm 0.00 in0.0 mm
03:06 AM 48.6°F9.2°C 44.2°F6.8°C 85% 11.2 mph N18.0 kmh N 14.8 mph23.8 kmh 30.09 in1019.0 mb 0.00 in0.0 mm 0.00 in0.0 mm 0.00 in0.0 mm
03:11 AM 48.5°F9.2°C 43.8°F6.6°C 84% 8.9 mph NNE14.3 kmh NNE 14.8 mph23.8 kmh 30.09 in1019.0 mb 0.00 in0.0 mm 0.00 in0.0 mm 0.00 in0.0 mm
03:16 AM 48.3°F9.1°C 43.6°F6.4°C 84% 8.8 mph N14.2 kmh N 14.8 mph23.8 kmh 30.09 in1019.0 mb 0.00 in0.0 mm 0.00 in0.0 mm 0.00 in0.0 mm
03:21 AM 48.1°F8.9°C 43.1°F6.2°C 83% 5.1 mph NE8.2 kmh NE 14.8 mph23.8 kmh 30.09 in1019.0 mb 0.00 in0.0 mm 0.00 in0.0 mm 0.00 in0.0 mm
03:26 AM 48.1°F8.9°C 43.1°F6.2°C 83% 5.8 mph NNE9.3 kmh NNE 11.2 mph18.0 kmh 30.09 in1019.0 mb 0.00 in0.0 mm 0.00 in0.0 mm 0.00 in0.0 mm
03:32 AM 47.9°F8.8°C 42.9°F6.1°C 83% 5.0 mph NNE8.0 kmh NNE 9.8 mph15.8 kmh 30.09 in1019.0 mb 0.00 in0.0 mm 0.00 in0.0 mm 0.00 in0.0 mm
03:37 AM 47.6°F8.7°C 42.6°F5.9°C 83% 6.3 mph N10.1 kmh N 9.8 mph15.8 kmh 30.09 in1019.0 mb 0.00 in0.0 mm 0.00 in0.0 mm 0.00 in0.0 mm
03:42 AM 47.6°F8.7°C 42.6°F5.9°C 83% 3.8 mph NE6.1 kmh NE 7.6 mph12.2 kmh 30.09 in1019.0 mb 0.00 in0.0 mm 0.00 in0.0 mm 0.00 in0.0 mm
03:47 AM 47.4°F8.6°C 42.1°F5.6°C 82% 5.0 mph NE8.0 kmh NE 7.2 mph11.6 kmh 30.09 in1019.0 mb 0.00 in0.0 mm 0.00 in0.0 mm 0.00 in0.0 mm
03:52 AM 47.2°F8.4°C 42.2°F5.7°C 83% 6.1 mph NE9.8 kmh NE 10.8 mph17.4 kmh 30.09 in1019.0 mb 0.00 in0.0 mm 0.00 in0.0 mm 0.00 in0.0 mm
03:57 AM 47.2°F8.4°C 41.9°F5.5°C 82% 4.6 mph NNE7.4 kmh NNE 10.8 mph17.4 kmh 30.09 in1019.0 mb 0.00 in0.0 mm 0.00 in0.0 mm 0.00 in0.0 mm
04:02 AM 47.0°F8.3°C 41.7°F5.4°C 82% 5.3 mph NNE8.5 kmh NNE 7.2 mph11.6 kmh 30.09 in1019.0 mb 0.00 in0.0 mm 0.00 in0.0 mm 0.00 in0.0 mm
04:07 AM 46.8°F8.2°C 41.8°F5.4°C 83% 6.2 mph NNE10.0 kmh NNE 9.4 mph15.1 kmh 30.09 in1019.0 mb 0.00 in0.0 mm 0.00 in0.0 mm 0.00 in0.0 mm
04:12 AM 46.8°F8.2°C 41.5°F5.3°C 82% 5.3 mph NNE8.5 kmh NNE 9.4 mph15.1 kmh 30.09 in1019.0 mb 0.00 in0.0 mm 0.00 in0.0 mm 0.00 in0.0 mm
04:17 AM 46.7°F8.2°C 41.7°F5.4°C 83% 7.2 mph NNE11.6 kmh NNE 12.0 mph19.3 kmh 30.09 in1019.0 mb 0.00 in0.0 mm 0.00 in0.0 mm 0.00 in0.0 mm
04:23 AM 46.7°F8.2°C 41.4°F5.2°C 82% 6.3 mph NE10.1 kmh NE 12.0 mph19.3 kmh 30.09 in1019.0 mb 0.00 in0.0 mm 0.00 in0.0 mm 0.00 in0.0 mm
04:28 AM 46.5°F8.1°C 41.2°F5.1°C 82% 8.2 mph NE13.2 kmh NE 11.6 mph18.7 kmh 30.09 in1019.0 mb 0.00 in0.0 mm 0.00 in0.0 mm 0.00 in0.0 mm
04:34 AM 46.5°F8.1°C 41.2°F5.1°C 82% 5.6 mph ENE9.0 kmh ENE 11.6 mph18.7 kmh 30.09 in1019.0 mb 0.00 in0.0 mm 0.00 in0.0 mm 0.00 in0.0 mm
04:39 AM 46.3°F7.9°C 40.7°F4.8°C 81% 5.0 mph NE8.0 kmh NE 11.6 mph18.7 kmh 30.09 in1019.0 mb 0.00 in0.0 mm 0.00 in0.0 mm 0.00 in0.0 mm
04:44 AM 46.3°F7.9°C 40.7°F4.8°C 81% 4.8 mph NE7.7 kmh NE 11.6 mph18.7 kmh 30.09 in1019.0 mb 0.00 in0.0 mm 0.00 in0.0 mm 0.00 in0.0 mm
04:49 AM 46.1°F7.8°C 40.5°F4.7°C 81% 2.0 mph ESE3.2 kmh ESE 11.6 mph18.7 kmh 30.09 in1019.0 mb 0.00 in0.0 mm 0.00 in0.0 mm 0.00 in0.0 mm
04:54 AM 46.1°F7.8°C 40.5°F4.7°C 81% 4.0 mph ENE6.4 kmh ENE 7.2 mph11.6 kmh 30.09 in1019.0 mb 0.00 in0.0 mm 0.00 in0.0 mm 0.00 in0.0 mm
04:59 AM 46.1°F7.8°C 40.5°F4.7°C 81% 4.0 mph E6.4 kmh E 7.2 mph11.6 kmh 30.09 in1019.0 mb 0.00 in0.0 mm 0.00 in0.0 mm 0.00 in0.0 mm
05:04 AM 45.9°F7.7°C 40.0°F4.4°C 80% 4.6 mph ENE7.4 kmh ENE 5.8 mph9.3 kmh 30.09 in1019.0 mb 0.00 in0.0 mm 0.00 in0.0 mm 0.00 in0.0 mm
05:09 AM 46.1°F7.8°C 40.2°F4.6°C 80% 3.7 mph ENE6.0 kmh ENE 8.6 mph13.8 kmh 30.12 in1020.0 mb 0.00 in0.0 mm 0.00 in0.0 mm 0.00 in0.0 mm
05:15 AM 45.9°F7.7°C 40.0°F4.4°C 80% 5.3 mph NNE8.5 kmh NNE 8.6 mph13.8 kmh 30.12 in1020.0 mb 0.00 in0.0 mm 0.00 in0.0 mm 0.00 in0.0 mm
05:20 AM 45.9°F7.7°C 40.0°F4.4°C 80% 3.9 mph NE6.3 kmh NE 7.6 mph12.2 kmh 30.12 in1020.0 mb 0.00 in0.0 mm 0.00 in0.0 mm 0.00 in0.0 mm
05:25 AM 45.8°F7.7°C 39.9°F4.4°C 80% 3.1 mph NNE5.0 kmh NNE 6.8 mph10.9 kmh 30.12 in1020.0 mb 0.00 in0.0 mm 0.00 in0.0 mm 0.00 in0.0 mm
05:30 AM 45.8°F7.7°C 39.9°F4.4°C 80% 4.0 mph NE6.4 kmh NE 5.8 mph9.3 kmh 30.12 in1020.0 mb 0.00 in0.0 mm 0.00 in0.0 mm 0.00 in0.0 mm
05:36 AM 45.6°F7.6°C 39.4°F4.1°C 79% 3.6 mph NE5.8 kmh NE 5.4 mph8.7 kmh 30.12 in1020.0 mb 0.00 in0.0 mm 0.00 in0.0 mm 0.00 in0.0 mm
05:41 AM 45.6°F7.6°C 39.7°F4.3°C 80% 5.5 mph NNE8.9 kmh NNE 6.8 mph10.9 kmh 30.12 in1020.0 mb 0.00 in0.0 mm 0.00 in0.0 mm 0.00 in0.0 mm
05:46 AM 45.6°F7.6°C 39.7°F4.3°C 80% 4.4 mph NE7.1 kmh NE 6.8 mph10.9 kmh 30.12 in1020.0 mb 0.00 in0.0 mm 0.00 in0.0 mm 0.00 in0.0 mm
05:51 AM 45.4°F7.4°C 39.2°F4.0°C 79% 3.0 mph NE4.8 kmh NE 6.2 mph10.0 kmh 30.15 in1021.0 mb 0.00 in0.0 mm 0.00 in0.0 mm 0.00 in0.0 mm
05:56 AM 45.4°F7.4°C 39.2°F4.0°C 79% 2.2 mph E3.5 kmh E 5.0 mph8.0 kmh 30.15 in1021.0 mb 0.00 in0.0 mm 0.00 in0.0 mm 0.00 in0.0 mm
06:01 AM 45.4°F7.4°C 39.2°F4.0°C 79% 2.0 mph E3.2 kmh E 5.0 mph8.0 kmh 30.15 in1021.0 mb 0.00 in0.0 mm 0.00 in0.0 mm 0.00 in0.0 mm
06:06 AM 45.2°F7.3°C 39.0°F3.9°C 79% Calm Calm 2.6 mph4.2 kmh 30.15 in1021.0 mb 0.00 in0.0 mm 0.00 in0.0 mm 0.00 in0.0 mm
06:11 AM 45.2°F7.3°C 39.0°F3.9°C 79% 2.6 mph ENE4.2 kmh ENE 2.6 mph4.2 kmh 30.15 in1021.0 mb 0.00 in0.0 mm 0.00 in0.0 mm 0.00 in0.0 mm
06:16 AM 45.2°F7.3°C 39.0°F3.9°C 79% 2.7 mph NE4.3 kmh NE 4.0 mph6.4 kmh 30.15 in1021.0 mb 0.00 in0.0 mm 0.00 in0.0 mm 0.00 in0.0 mm
06:21 AM 45.2°F7.3°C 39.0°F3.9°C 79% Calm Calm 4.0 mph6.4 kmh 30.15 in1021.0 mb 0.00 in0.0 mm 0.00 in0.0 mm 0.00 in0.0 mm
06:27 AM 45.0°F7.2°C 39.2°F4.0°C 80% Calm Calm 3.2 mph5.1 kmh 30.15 in1021.0 mb 0.00 in0.0 mm 0.00 in0.0 mm 0.00 in0.0 mm
06:32 AM 45.0°F7.2°C 39.2°F4.0°C 80% Calm Calm -- 30.15 in1021.0 mb 0.00 in0.0 mm 0.00 in0.0 mm 0.00 in0.0 mm
06:37 AM 45.0°F7.2°C 39.5°F4.2°C 81% Calm Calm -- 30.15 in1021.0 mb 0.00 in0.0 mm 0.00 in0.0 mm 0.00 in0.0 mm
06:42 AM 44.9°F7.2°C 39.7°F4.3°C 82% Calm Calm -- 30.15 in1021.0 mb 0.00 in0.0 mm 0.00 in0.0 mm 0.00 in0.0 mm
06:47 AM 44.9°F7.2°C 39.7°F4.3°C 82% Calm Calm -- 30.15 in1021.0 mb 0.00 in0.0 mm 0.00 in0.0 mm 0.00 in0.0 mm
06:52 AM 44.7°F7.1°C 39.5°F4.2°C 82% Calm Calm -- 30.15 in1021.0 mb 0.00 in0.0 mm 0.00 in0.0 mm 0.00 in0.0 mm
06:58 AM 44.7°F7.1°C 39.2°F4.0°C 81% 2.0 mph NNE3.2 kmh NNE 2.2 mph3.5 kmh 30.15 in1021.0 mb 0.00 in0.0 mm 0.00 in0.0 mm 0.00 in0.0 mm
07:03 AM 44.7°F7.1°C 39.5°F4.2°C 82% 2.1 mph ENE3.4 kmh ENE 5.0 mph8.0 kmh 30.15 in1021.0 mb 0.00 in0.0 mm 0.00 in0.0 mm 0.00 in0.0 mm
07:08 AM 44.7°F7.1°C 39.5°F4.2°C 82% 2.3 mph ENE3.7 kmh ENE 5.0 mph8.0 kmh 30.15 in1021.0 mb 0.00 in0.0 mm 0.00 in0.0 mm 0.00 in0.0 mm
07:13 AM 44.5°F6.9°C 39.3°F4.1°C 82% 3.0 mph NE4.8 kmh NE 4.0 mph6.4 kmh 30.15 in1021.0 mb 0.00 in0.0 mm 0.00 in0.0 mm 0.00 in0.0 mm
07:18 AM 44.7°F7.1°C 39.5°F4.2°C 82% 3.6 mph NE5.8 kmh NE 5.0 mph8.0 kmh 30.15 in1021.0 mb 0.00 in0.0 mm 0.00 in0.0 mm 0.00 in0.0 mm
07:23 AM 44.7°F7.1°C 39.8°F4.3°C 83% 5.5 mph NNE8.9 kmh NNE 7.6 mph12.2 kmh 30.18 in1022.0 mb 0.00 in0.0 mm 0.00 in0.0 mm 0.00 in0.0 mm
07:29 AM 44.9°F7.2°C 40.3°F4.6°C 84% 5.4 mph NNE8.7 kmh NNE 7.6 mph12.2 kmh 30.18 in1022.0 mb 0.00 in0.0 mm 0.00 in0.0 mm 0.00 in0.0 mm
07:34 AM 45.0°F7.2°C 40.1°F4.5°C 83% 5.5 mph NE8.9 kmh NE 7.6 mph12.2 kmh 30.18 in1022.0 mb 0.00 in0.0 mm 0.00 in0.0 mm 0.00 in0.0 mm
07:39 AM 45.0°F7.2°C 40.4°F4.7°C 84% 6.3 mph NE10.1 kmh NE 9.8 mph15.8 kmh 30.18 in1022.0 mb 0.00 in0.0 mm 0.00 in0.0 mm 0.00 in0.0 mm
07:44 AM 45.2°F7.3°C 40.6°F4.8°C 84% 6.2 mph NNE10.0 kmh NNE 9.8 mph15.8 kmh 30.18 in1022.0 mb 0.00 in0.0 mm 0.00 in0.0 mm 0.00 in0.0 mm
07:49 AM 45.2°F7.3°C 40.3°F4.6°C 83% 4.6 mph ENE7.4 kmh ENE 7.6 mph12.2 kmh 30.18 in1022.0 mb 0.00 in0.0 mm 0.00 in0.0 mm 0.00 in0.0 mm
07:54 AM 45.4°F7.4°C 40.5°F4.7°C 83% 5.3 mph NE8.5 kmh NE 7.2 mph11.6 kmh 30.18 in1022.0 mb 0.00 in0.0 mm 0.00 in0.0 mm 0.00 in0.0 mm
07:59 AM 45.4°F7.4°C 40.2°F4.6°C 82% 5.9 mph NE9.5 kmh NE 8.6 mph13.8 kmh 30.18 in1022.0 mb 0.00 in0.0 mm 0.00 in0.0 mm 0.00 in0.0 mm
08:04 AM 45.6°F7.6°C 40.4°F4.7°C 82% 6.2 mph NNE10.0 kmh NNE 8.6 mph13.8 kmh 30.18 in1022.0 mb 0.00 in0.0 mm 0.00 in0.0 mm 0.00 in0.0 mm
08:09 AM 45.8°F7.7°C 40.6°F4.8°C 82% 6.3 mph NNE10.1 kmh NNE 8.6 mph13.8 kmh 30.18 in1022.0 mb 0.00 in0.0 mm 0.00 in0.0 mm 0.00 in0.0 mm
08:14 AM 45.9°F7.7°C 40.6°F4.8°C 82% 6.2 mph NNE10.0 kmh NNE 8.6 mph13.8 kmh 30.18 in1022.0 mb 0.00 in0.0 mm 0.00 in0.0 mm 0.00 in0.0 mm
08:19 AM 46.1°F7.8°C 40.5°F4.7°C 81% 8.4 mph NNE13.5 kmh NNE 12.0 mph19.3 kmh 30.18 in1022.0 mb 0.00 in0.0 mm 0.00 in0.0 mm 0.00 in0.0 mm
08:24 AM 46.3°F7.9°C 40.4°F4.7°C 80% 6.7 mph NE10.8 kmh NE 12.6 mph20.3 kmh 30.21 in1023.0 mb 0.00 in0.0 mm 0.00 in0.0 mm 0.00 in0.0 mm
08:29 AM 46.8°F8.2°C 40.9°F4.9°C 80% 5.6 mph NE9.0 kmh NE 12.6 mph20.3 kmh 30.21 in1023.0 mb 0.00 in0.0 mm 0.00 in0.0 mm 0.00 in0.0 mm
08:34 AM 47.0°F8.3°C 40.5°F4.7°C 78% 7.9 mph NNE12.7 kmh NNE 10.8 mph17.4 kmh 30.21 in1023.0 mb 0.00 in0.0 mm 0.00 in0.0 mm 0.00 in0.0 mm
08:39 AM 47.4°F8.6°C 40.8°F4.9°C 78% 6.8 mph NE10.9 kmh NE 10.8 mph17.4 kmh 30.21 in1023.0 mb 0.00 in0.0 mm 0.00 in0.0 mm 0.00 in0.0 mm
08:44 AM 47.9°F8.8°C 41.0°F5.0°C 77% 4.4 mph E7.1 kmh E 9.8 mph15.8 kmh 30.21 in1023.0 mb 0.00 in0.0 mm 0.00 in0.0 mm 0.00 in0.0 mm
08:49 AM 47.7°F8.7°C 40.2°F4.6°C 75% 4.6 mph NNE7.4 kmh NNE 9.4 mph15.1 kmh 30.21 in1023.0 mb 0.00 in0.0 mm 0.00 in0.0 mm 0.00 in0.0 mm
08:54 AM 47.7°F8.7°C 39.8°F4.3°C 74% 7.8 mph NE12.6 kmh NE 10.8 mph17.4 kmh 30.21 in1023.0 mb 0.00 in0.0 mm 0.00 in0.0 mm 0.00 in0.0 mm
08:59 AM 47.9°F8.8°C 40.0°F4.4°C 74% 7.9 mph NE12.7 kmh NE 10.8 mph17.4 kmh 30.21 in1023.0 mb 0.00 in0.0 mm 0.00 in0.0 mm 0.00 in0.0 mm
09:04 AM 48.5°F9.2°C 40.2°F4.6°C 73% 6.5 mph NE10.5 kmh NE 12.6 mph20.3 kmh 30.21 in1023.0 mb 0.00 in0.0 mm 0.00 in0.0 mm 0.00 in0.0 mm
09:10 AM 48.5°F9.2°C 39.9°F4.4°C 72% 9.1 mph NE14.6 kmh NE 13.0 mph20.9 kmh 30.21 in1023.0 mb 0.00 in0.0 mm 0.00 in0.0 mm 0.00 in0.0 mm
09:15 AM 48.6°F9.2°C 40.0°F4.4°C 72% 6.3 mph E10.1 kmh E 13.0 mph20.9 kmh 30.21 in1023.0 mb 0.00 in0.0 mm 0.00 in0.0 mm 0.00 in0.0 mm
09:20 AM 49.2°F9.6°C 40.6°F4.8°C 72% 5.9 mph E9.5 kmh E 12.0 mph19.3 kmh 30.21 in1023.0 mb 0.00 in0.0 mm 0.00 in0.0 mm 0.00 in0.0 mm
09:25 AM 49.5°F9.7°C 40.5°F4.7°C 71% 5.5 mph NE8.9 kmh NE 11.2 mph18.0 kmh 30.21 in1023.0 mb 0.00 in0.0 mm 0.00 in0.0 mm 0.00 in0.0 mm
09:30 AM 49.5°F9.7°C 39.8°F4.3°C 69% 9.1 mph NNE14.6 kmh NNE 11.6 mph18.7 kmh 30.21 in1023.0 mb 0.00 in0.0 mm 0.00 in0.0 mm 0.00 in0.0 mm
09:35 AM 49.9°F9.9°C 40.2°F4.6°C 69% 6.2 mph NE10.0 kmh NE 11.6 mph18.7 kmh 30.21 in1023.0 mb 0.00 in0.0 mm 0.00 in0.0 mm 0.00 in0.0 mm
09:40 AM 50.1°F10.1°C 40.0°F4.4°C 68% 8.6 mph NE13.8 kmh NE 12.0 mph19.3 kmh 30.21 in1023.0 mb 0.00 in0.0 mm 0.00 in0.0 mm 0.00 in0.0 mm
09:45 AM 50.3°F10.2°C 39.8°F4.3°C 67% 7.8 mph NE12.6 kmh NE 12.6 mph20.3 kmh 30.21 in1023.0 mb 0.00 in0.0 mm 0.00 in0.0 mm 0.00 in0.0 mm
09:50 AM 50.6°F10.3°C 39.3°F4.1°C 65% 14.2 mph NNE22.9 kmh NNE 20.6 mph33.2 kmh 30.21 in1023.0 mb 0.00 in0.0 mm 0.00 in0.0 mm 0.00 in0.0 mm
09:55 AM 51.2°F10.7°C 39.1°F3.9°C 63% 11.4 mph NE18.3 kmh NE 20.6 mph33.2 kmh 30.21 in1023.0 mb 0.00 in0.0 mm 0.00 in0.0 mm 0.00 in0.0 mm
10:00 AM 51.7°F10.9°C 39.1°F3.9°C 62% 6.9 mph ENE11.1 kmh ENE 15.2 mph24.5 kmh 30.21 in1023.0 mb 0.00 in0.0 mm 0.00 in0.0 mm 0.00 in0.0 mm
10:05 AM 52.4°F11.3°C 38.9°F3.8°C 60% 8.9 mph ENE14.3 kmh ENE 13.8 mph22.2 kmh 30.21 in1023.0 mb 0.00 in0.0 mm 0.00 in0.0 mm 0.00 in0.0 mm
10:10 AM 52.6°F11.4°C 38.7°F3.7°C 59% 10.9 mph NE17.5 kmh NE 17.0 mph27.4 kmh 30.21 in1023.0 mb 0.00 in0.0 mm 0.00 in0.0 mm 0.00 in0.0 mm
10:15 AM 53.3°F11.8°C 38.9°F3.8°C 58% 9.5 mph ENE15.3 kmh ENE 17.0 mph27.4 kmh 30.21 in1023.0 mb 0.00 in0.0 mm 0.00 in0.0 mm 0.00 in0.0 mm
10:23 AM 54.8°F12.7°C 40.3°F4.6°C 58% 6.6 mph NE10.6 kmh NE 12.0 mph19.3 kmh 30.21 in1023.0 mb 0.00 in0.0 mm 0.00 in0.0 mm 0.00 in0.0 mm
10:28 AM 54.0°F12.2°C 38.6°F3.7°C 56% 9.6 mph N15.4 kmh N 12.0 mph19.3 kmh 30.21 in1023.0 mb 0.00 in0.0 mm 0.00 in0.0 mm 0.00 in0.0 mm
10:34 AM 54.4°F12.4°C 38.5°F3.6°C 55% 8.7 mph NE14.0 kmh NE 14.8 mph23.8 kmh 30.21 in1023.0 mb 0.00 in0.0 mm 0.00 in0.0 mm 0.00 in0.0 mm
10:39 AM 54.9°F12.7°C 39.0°F3.9°C 55% 5.7 mph N9.2 kmh N 14.8 mph23.8 kmh 30.21 in1023.0 mb 0.00 in0.0 mm 0.00 in0.0 mm 0.00 in0.0 mm
10:44 AM 56.2°F13.4°C 39.2°F4.0°C 53% 10.2 mph NE16.4 kmh NE 13.8 mph22.2 kmh 30.21 in1023.0 mb 0.00 in0.0 mm 0.00 in0.0 mm 0.00 in0.0 mm
10:49 AM 56.9°F13.8°C 39.9°F4.4°C 53% 7.5 mph NNE12.1 kmh NNE 15.6 mph25.1 kmh 30.21 in1023.0 mb 0.00 in0.0 mm 0.00 in0.0 mm 0.00 in0.0 mm
10:54 AM 57.3°F14.1°C 38.7°F3.7°C 50% 13.3 mph NE21.4 kmh NE 20.2 mph32.5 kmh 30.18 in1022.0 mb 0.00 in0.0 mm 0.00 in0.0 mm 0.00 in0.0 mm
10:59 AM 57.6°F14.2°C 39.5°F4.2°C 51% 7.5 mph N12.1 kmh N 20.2 mph32.5 kmh 30.18 in1022.0 mb 0.00 in0.0 mm 0.00 in0.0 mm 0.00 in0.0 mm
11:05 AM 58.5°F14.7°C 39.3°F4.1°C 49% 9.9 mph ENE15.9 kmh ENE 18.4 mph29.6 kmh 30.18 in1022.0 mb 0.00 in0.0 mm 0.00 in0.0 mm 0.00 in0.0 mm
11:10 AM 59.9°F15.5°C 40.7°F4.8°C 49% 7.2 mph NE11.6 kmh NE 17.0 mph27.4 kmh 30.18 in1022.0 mb 0.00 in0.0 mm 0.00 in0.0 mm 0.00 in0.0 mm
11:16 AM 60.2°F15.7°C 39.8°F4.3°C 47% 9.0 mph NE14.5 kmh NE 17.4 mph28.0 kmh 30.18 in1022.0 mb 0.00 in0.0 mm 0.00 in0.0 mm 0.00 in0.0 mm
11:21 AM 61.0°F16.1°C 40.0°F4.4°C 46% 6.8 mph NE10.9 kmh NE 17.4 mph28.0 kmh 30.18 in1022.0 mb 0.00 in0.0 mm 0.00 in0.0 mm 0.00 in0.0 mm
11:27 AM 62.4°F16.9°C 40.7°F4.8°C 45% 7.3 mph ENE11.7 kmh ENE 11.6 mph18.7 kmh 30.21 in1023.0 mb 0.00 in0.0 mm 0.00 in0.0 mm 0.00 in0.0 mm
11:32 AM 62.4°F16.9°C 40.1°F4.5°C 44% 11.0 mph ENE17.7 kmh ENE 17.4 mph28.0 kmh 30.21 in1023.0 mb 0.00 in0.0 mm 0.00 in0.0 mm 0.00 in0.0 mm
11:37 AM 62.4°F16.9°C 40.1°F4.5°C 44% 8.5 mph NE13.7 kmh NE 17.4 mph28.0 kmh 30.21 in1023.0 mb 0.00 in0.0 mm 0.00 in0.0 mm 0.00 in0.0 mm
11:42 AM 62.8°F17.1°C 39.8°F4.3°C 43% 7.1 mph NNW11.4 kmh NNW 13.0 mph20.9 kmh 30.21 in1023.0 mb 0.00 in0.0 mm 0.00 in0.0 mm 0.00 in0.0 mm
11:48 AM 61.7°F16.5°C 38.2°F3.4°C 42% 14.3 mph N23.0 kmh N 21.0 mph33.8 kmh 30.21 in1023.0 mb 0.00 in0.0 mm 0.00 in0.0 mm 0.00 in0.0 mm
11:53 AM 62.6°F17.0°C 37.8°F3.2°C 40% 13.8 mph NE22.2 kmh NE 21.0 mph33.8 kmh 30.21 in1023.0 mb 0.00 in0.0 mm 0.00 in0.0 mm 0.00 in0.0 mm
11:59 AM 62.4°F16.9°C 37.6°F3.1°C 40% 11.5 mph N18.5 kmh N 19.2 mph30.9 kmh 30.21 in1023.0 mb 0.00 in0.0 mm 0.00 in0.0 mm 0.00 in0.0 mm
12:04 PM 62.8°F17.1°C 38.6°F3.7°C 41% 6.4 mph NNW10.3 kmh NNW 17.4 mph28.0 kmh 30.21 in1023.0 mb 0.00 in0.0 mm 0.00 in0.0 mm 0.00 in0.0 mm
12:09 PM 61.5°F16.4°C 36.8°F2.7°C 40% 15.0 mph NNE24.1 kmh NNE 20.6 mph33.2 kmh 30.21 in1023.0 mb 0.00 in0.0 mm 0.00 in0.0 mm 0.00 in0.0 mm
12:14 PM 63.1°F17.3°C 37.5°F3.1°C 39% 11.3 mph NE18.2 kmh NE 20.6 mph33.2 kmh 30.21 in1023.0 mb 0.00 in0.0 mm 0.00 in0.0 mm 0.00 in0.0 mm
12:19 PM 63.7°F17.6°C 39.4°F4.1°C 41% 10.8 mph NE17.4 kmh NE 19.6 mph31.5 kmh 30.21 in1023.0 mb 0.00 in0.0 mm 0.00 in0.0 mm 0.00 in0.0 mm
12:24 PM 63.7°F17.6°C 38.7°F3.7°C 40% 9.6 mph NE15.4 kmh NE 15.6 mph25.1 kmh 30.18 in1022.0 mb 0.00 in0.0 mm 0.00 in0.0 mm 0.00 in0.0 mm
12:30 PM 62.6°F17.0°C 37.1°F2.8°C 39% 11.6 mph N18.7 kmh N 20.2 mph32.5 kmh 30.18 in1022.0 mb 0.00 in0.0 mm 0.00 in0.0 mm 0.00 in0.0 mm
12:35 PM 64.7°F18.2°C 39.6°F4.2°C 40% 6.8 mph NE10.9 kmh NE 20.2 mph32.5 kmh 30.18 in1022.0 mb 0.00 in0.0 mm 0.00 in0.0 mm 0.00 in0.0 mm
12:40 PM 65.5°F18.6°C 39.7°F4.3°C 39% 5.2 mph ENE8.4 kmh ENE 13.4 mph21.6 kmh 30.18 in1022.0 mb 0.00 in0.0 mm 0.00 in0.0 mm 0.00 in0.0 mm
12:45 PM 66.2°F19.0°C 39.6°F4.2°C 38% 9.7 mph NE15.6 kmh NE 13.4 mph21.6 kmh 30.18 in1022.0 mb 0.00 in0.0 mm 0.00 in0.0 mm 0.00 in0.0 mm
12:51 PM 66.9°F19.4°C 40.3°F4.6°C 38% 6.1 mph ENE9.8 kmh ENE 13.8 mph22.2 kmh 30.18 in1022.0 mb 0.00 in0.0 mm 0.00 in0.0 mm 0.00 in0.0 mm
12:56 PM 63.1°F17.3°C 36.2°F2.3°C 37% 17.0 mph NNE27.4 kmh NNE 25.0 mph40.2 kmh 30.15 in1021.0 mb 0.00 in0.0 mm 0.00 in0.0 mm 0.00 in0.0 mm
01:01 PM 63.5°F17.5°C 36.5°F2.5°C 37% 11.3 mph N18.2 kmh N 25.0 mph40.2 kmh 30.15 in1021.0 mb 0.00 in0.0 mm 0.00 in0.0 mm 0.00 in0.0 mm
01:06 PM 65.3°F18.5°C 38.1°F3.4°C 37% 7.3 mph N11.7 kmh N 25.0 mph40.2 kmh 30.15 in1021.0 mb 0.00 in0.0 mm 0.00 in0.0 mm 0.00 in0.0 mm
01:11 PM 64.9°F18.3°C 38.5°F3.6°C 38% 11.1 mph NE17.9 kmh NE 20.2 mph32.5 kmh 30.15 in1021.0 mb 0.00 in0.0 mm 0.00 in0.0 mm 0.00 in0.0 mm
01:17 PM 65.5°F18.6°C 39.0°F3.9°C 38% 8.9 mph NE14.3 kmh NE 20.2 mph32.5 kmh 30.15 in1021.0 mb 0.00 in0.0 mm 0.00 in0.0 mm 0.00 in0.0 mm
01:22 PM 66.2°F19.0°C 38.9°F3.8°C 37% 7.9 mph N12.7 kmh N 19.2 mph30.9 kmh 30.15 in1021.0 mb 0.00 in0.0 mm 0.00 in0.0 mm 0.00 in0.0 mm
01:27 PM 66.5°F19.2°C 38.5°F3.6°C 36% 7.8 mph NE12.6 kmh NE 21.0 mph33.8 kmh 30.15 in1021.0 mb 0.00 in0.0 mm 0.00 in0.0 mm 0.00 in0.0 mm
01:33 PM 64.6°F18.1°C 37.5°F3.1°C 37% 7.3 mph WNW11.7 kmh WNW 21.0 mph33.8 kmh 30.15 in1021.0 mb 0.00 in0.0 mm 0.00 in0.0 mm 0.00 in0.0 mm
01:38 PM 65.1°F18.4°C 38.0°F3.3°C 37% 9.7 mph NNW15.6 kmh NNW 13.0 mph20.9 kmh 30.12 in1020.0 mb 0.00 in0.0 mm 0.00 in0.0 mm 0.00 in0.0 mm
01:43 PM 65.6°F18.7°C 38.4°F3.6°C 37% 8.5 mph NNW13.7 kmh NNW 13.0 mph20.9 kmh 30.12 in1020.0 mb 0.00 in0.0 mm 0.00 in0.0 mm 0.00 in0.0 mm
01:48 PM 66.9°F19.4°C 39.6°F4.2°C 37% 7.8 mph N12.6 kmh N 13.0 mph20.9 kmh 30.12 in1020.0 mb 0.00 in0.0 mm 0.00 in0.0 mm 0.00 in0.0 mm
01:53 PM 67.8°F19.9°C 40.4°F4.7°C 37% 5.2 mph W8.4 kmh W 11.6 mph18.7 kmh 30.15 in1021.0 mb 0.00 in0.0 mm 0.00 in0.0 mm 0.00 in0.0 mm
01:58 PM 68.2°F20.1°C 40.0°F4.4°C 36% 13.4 mph NE21.6 kmh NE 17.4 mph28.0 kmh 30.15 in1021.0 mb 0.00 in0.0 mm 0.00 in0.0 mm 0.00 in0.0 mm
02:04 PM 67.8°F19.9°C 38.9°F3.8°C 35% 11.7 mph NE18.8 kmh NE 18.4 mph29.6 kmh 30.15 in1021.0 mb 0.00 in0.0 mm 0.00 in0.0 mm 0.00 in0.0 mm
02:09 PM 67.4°F19.7°C 39.3°F4.1°C 36% 8.5 mph NE13.7 kmh NE 18.4 mph29.6 kmh 30.12 in1020.0 mb 0.00 in0.0 mm 0.00 in0.0 mm 0.00 in0.0 mm
02:14 PM 65.8°F18.8°C 38.6°F3.7°C 37% 13.2 mph N21.2 kmh N 20.6 mph33.2 kmh 30.12 in1020.0 mb 0.00 in0.0 mm 0.00 in0.0 mm 0.00 in0.0 mm
02:19 PM 67.4°F19.7°C 40.0°F4.4°C 37% 6.0 mph NNE9.7 kmh NNE 20.6 mph33.2 kmh 30.12 in1020.0 mb 0.00 in0.0 mm 0.00 in0.0 mm 0.00 in0.0 mm
02:25 PM 68.9°F20.5°C 40.6°F4.8°C 36% 6.6 mph NNE10.6 kmh NNE 15.2 mph24.5 kmh 30.12 in1020.0 mb 0.00 in0.0 mm 0.00 in0.0 mm 0.00 in0.0 mm
02:30 PM 68.9°F20.5°C 39.9°F4.4°C 35% 8.9 mph NNE14.3 kmh NNE 15.2 mph24.5 kmh 30.12 in1020.0 mb 0.00 in0.0 mm 0.00 in0.0 mm 0.00 in0.0 mm
02:35 PM 68.9°F20.5°C 39.9°F4.4°C 35% 11.7 mph NE18.8 kmh NE 17.4 mph28.0 kmh 30.12 in1020.0 mb 0.00 in0.0 mm 0.00 in0.0 mm 0.00 in0.0 mm
02:40 PM 67.8°F19.9°C 38.9°F3.8°C 35% 8.6 mph W13.8 kmh W 17.4 mph28.0 kmh 30.09 in1019.0 mb 0.00 in0.0 mm 0.00 in0.0 mm 0.00 in0.0 mm
02:45 PM 68.0°F20.0°C 39.8°F4.3°C 36% 8.6 mph 13.8 kmh 13.0 mph20.9 kmh 30.09 in1019.0 mb 0.00 in0.0 mm 0.00 in0.0 mm 0.00 in0.0 mm
02:50 PM 68.5°F20.3°C 40.3°F4.6°C 36% 6.3 mph NW10.1 kmh NW 13.0 mph20.9 kmh 30.09 in1019.0 mb 0.00 in0.0 mm 0.00 in0.0 mm 0.00 in0.0 mm
02:55 PM 69.1°F20.6°C 40.1°F4.5°C 35% 15.4 mph NNE24.8 kmh NNE 19.6 mph31.5 kmh 30.09 in1019.0 mb 0.00 in0.0 mm 0.00 in0.0 mm 0.00 in0.0 mm
03:00 PM 68.3°F20.2°C 39.4°F4.1°C 35% 8.2 mph W13.2 kmh W 19.6 mph31.5 kmh 30.09 in1019.0 mb 0.00 in0.0 mm 0.00 in0.0 mm 0.00 in0.0 mm
03:05 PM 68.2°F20.1°C 39.3°F4.1°C 35% 7.3 mph NNW11.7 kmh NNW 10.8 mph17.4 kmh 30.09 in1019.0 mb 0.00 in0.0 mm 0.00 in0.0 mm 0.00 in0.0 mm
03:10 PM 67.8°F19.9°C 39.7°F4.3°C 36% 5.2 mph WNW8.4 kmh WNW 9.8 mph15.8 kmh 30.09 in1019.0 mb 0.00 in0.0 mm 0.00 in0.0 mm 0.00 in0.0 mm
03:15 PM 69.1°F20.6°C 40.1°F4.5°C 35% 5.5 mph 8.9 kmh 13.0 mph20.9 kmh 30.09 in1019.0 mb 0.00 in0.0 mm 0.00 in0.0 mm 0.00 in0.0 mm
03:20 PM 68.9°F20.5°C 39.9°F4.4°C 35% 5.8 mph WSW9.3 kmh WSW 13.0 mph20.9 kmh 30.09 in1019.0 mb 0.00 in0.0 mm 0.00 in0.0 mm 0.00 in0.0 mm
03:27 PM 69.4°F20.8°C 40.3°F4.6°C 35% 4.3 mph W6.9 kmh W 9.4 mph15.1 kmh 30.09 in1019.0 mb 0.00 in0.0 mm 0.00 in0.0 mm 0.00 in0.0 mm
03:32 PM 69.4°F20.8°C 41.1°F5.1°C 36% 6.2 mph NNW10.0 kmh NNW 8.6 mph13.8 kmh 30.09 in1019.0 mb 0.00 in0.0 mm 0.00 in0.0 mm 0.00 in0.0 mm
03:38 PM 68.3°F20.2°C 39.4°F4.1°C 35% 7.6 mph W12.2 kmh W 11.2 mph18.0 kmh 30.09 in1019.0 mb 0.00 in0.0 mm 0.00 in0.0 mm 0.00 in0.0 mm
03:43 PM 68.2°F20.1°C 38.5°F3.6°C 34% 9.4 mph N15.1 kmh N 15.6 mph25.1 kmh 30.09 in1019.0 mb 0.00 in0.0 mm 0.00 in0.0 mm 0.00 in0.0 mm
03:48 PM 68.9°F20.5°C 39.9°F4.4°C 35% 7.9 mph N12.7 kmh N 15.6 mph25.1 kmh 30.09 in1019.0 mb 0.00 in0.0 mm 0.00 in0.0 mm 0.00 in0.0 mm
03:53 PM 70.1°F21.2°C 40.2°F4.6°C 34% 5.6 mph NNE9.0 kmh NNE 10.8 mph17.4 kmh 30.09 in1019.0 mb 0.00 in0.0 mm 0.00 in0.0 mm 0.00 in0.0 mm
03:58 PM 70.5°F21.4°C 40.5°F4.7°C 34% 5.5 mph E8.9 kmh E 8.6 mph13.8 kmh 30.09 in1019.0 mb 0.00 in0.0 mm 0.00 in0.0 mm 0.00 in0.0 mm
04:03 PM 69.1°F20.6°C 39.3°F4.1°C 34% 6.9 mph WSW11.1 kmh WSW 9.4 mph15.1 kmh 30.09 in1019.0 mb 0.00 in0.0 mm 0.00 in0.0 mm 0.00 in0.0 mm
04:08 PM 68.5°F20.3°C 39.5°F4.2°C 35% 4.5 mph NE7.2 kmh NE 9.4 mph15.1 kmh 30.09 in1019.0 mb 0.00 in0.0 mm 0.00 in0.0 mm 0.00 in0.0 mm
04:13 PM 69.2°F20.7°C 40.2°F4.6°C 35% 6.8 mph SE10.9 kmh SE 9.8 mph15.8 kmh 30.09 in1019.0 mb 0.00 in0.0 mm 0.00 in0.0 mm 0.00 in0.0 mm
04:18 PM 70.1°F21.2°C 40.2°F4.6°C 34% 3.0 mph SSW4.8 kmh SSW 9.8 mph15.8 kmh 30.09 in1019.0 mb 0.00 in0.0 mm 0.00 in0.0 mm 0.00 in0.0 mm
04:23 PM 71.8°F22.1°C 41.7°F5.4°C 34% 5.6 mph NE9.0 kmh NE 9.8 mph15.8 kmh 30.09 in1019.0 mb 0.00 in0.0 mm 0.00 in0.0 mm 0.00 in0.0 mm
04:28 PM 69.2°F20.7°C 39.4°F4.1°C 34% 6.7 mph WNW10.8 kmh WNW 8.6 mph13.8 kmh 30.09 in1019.0 mb 0.00 in0.0 mm 0.00 in0.0 mm 0.00 in0.0 mm
04:33 PM 68.7°F20.4°C 39.0°F3.9°C 34% 11.2 mph NNE18.0 kmh NNE 15.6 mph25.1 kmh 30.09 in1019.0 mb 0.00 in0.0 mm 0.00 in0.0 mm 0.00 in0.0 mm
04:40 PM 69.2°F20.7°C 39.4°F4.1°C 34% 6.2 mph NE10.0 kmh NE 17.8 mph28.6 kmh 30.06 in1017.9 mb 0.00 in0.0 mm 0.00 in0.0 mm 0.00 in0.0 mm
04:45 PM 71.0°F21.7°C 41.0°F5.0°C 34% 5.3 mph E8.5 kmh E 17.0 mph27.4 kmh 30.06 in1017.9 mb 0.00 in0.0 mm 0.00 in0.0 mm 0.00 in0.0 mm
04:50 PM 70.9°F21.6°C 40.9°F4.9°C 34% 8.8 mph NE14.2 kmh NE 11.2 mph18.0 kmh 30.06 in1017.9 mb 0.00 in0.0 mm 0.00 in0.0 mm 0.00 in0.0 mm
04:55 PM 69.8°F21.0°C 39.9°F4.4°C 34% 3.8 mph NW6.1 kmh NW 11.2 mph18.0 kmh 30.06 in1017.9 mb 0.00 in0.0 mm 0.00 in0.0 mm 0.00 in0.0 mm
05:00 PM 67.3°F19.6°C 37.7°F3.2°C 34% 10.3 mph N16.6 kmh N 13.0 mph20.9 kmh 30.06 in1017.9 mb 0.00 in0.0 mm 0.00 in0.0 mm 0.00 in0.0 mm
05:06 PM 68.2°F20.1°C 38.5°F3.6°C 34% 4.2 mph NE6.8 kmh NE 14.8 mph23.8 kmh 30.06 in1017.9 mb 0.00 in0.0 mm 0.00 in0.0 mm 0.00 in0.0 mm
05:10 PM 68.5°F20.3°C 38.8°F3.8°C 34% 5.3 mph NE8.5 kmh NE 14.8 mph23.8 kmh 30.06 in1017.9 mb 0.00 in0.0 mm 0.00 in0.0 mm 0.00 in0.0 mm
05:16 PM 66.7°F19.3°C 37.9°F3.3°C 35% 9.6 mph NNE15.4 kmh NNE 15.6 mph25.1 kmh 30.06 in1017.9 mb 0.00 in0.0 mm 0.00 in0.0 mm 0.00 in0.0 mm
05:21 PM 67.3°F19.6°C 37.7°F3.2°C 34% 8.1 mph ENE13.0 kmh ENE 15.6 mph25.1 kmh 30.06 in1017.9 mb 0.00 in0.0 mm 0.00 in0.0 mm 0.00 in0.0 mm
05:26 PM 67.3°F19.6°C 38.5°F3.6°C 35% 3.5 mph WSW5.6 kmh WSW 11.2 mph18.0 kmh 30.06 in1017.9 mb 0.00 in0.0 mm 0.00 in0.0 mm 0.00 in0.0 mm
05:31 PM 66.9°F19.4°C 38.1°F3.4°C 35% 2.3 mph SSE3.7 kmh SSE 9.8 mph15.8 kmh 30.06 in1017.9 mb 0.00 in0.0 mm 0.00 in0.0 mm 0.00 in0.0 mm
05:36 PM 66.7°F19.3°C 37.9°F3.3°C 35% 2.9 mph NNW4.7 kmh NNW 8.0 mph12.9 kmh 30.06 in1017.9 mb 0.00 in0.0 mm 0.00 in0.0 mm 0.00 in0.0 mm
05:43 PM 66.7°F19.3°C 37.9°F3.3°C 35% 6.1 mph ENE9.8 kmh ENE 8.6 mph13.8 kmh 30.06 in1017.9 mb 0.00 in0.0 mm 0.00 in0.0 mm 0.00 in0.0 mm
05:48 PM 65.6°F18.7°C 37.0°F2.8°C 35% 6.8 mph N10.9 kmh N 11.6 mph18.7 kmh 30.06 in1017.9 mb 0.00 in0.0 mm 0.00 in0.0 mm 0.00 in0.0 mm
05:53 PM 64.9°F18.3°C 36.4°F2.4°C 35% 9.8 mph NNE15.8 kmh NNE 14.8 mph23.8 kmh 30.06 in1017.9 mb 0.00 in0.0 mm 0.00 in0.0 mm 0.00 in0.0 mm
05:58 PM 64.9°F18.3°C 36.4°F2.4°C 35% 3.7 mph NNW6.0 kmh NNW 14.8 mph23.8 kmh 30.06 in1017.9 mb 0.00 in0.0 mm 0.00 in0.0 mm 0.00 in0.0 mm
06:03 PM 65.5°F18.6°C 37.6°F3.1°C 36% 2.4 mph E3.9 kmh E 8.6 mph13.8 kmh 30.06 in1017.9 mb 0.00 in0.0 mm 0.00 in0.0 mm 0.00 in0.0 mm
06:08 PM 65.3°F18.5°C 37.4°F3.0°C 36% 3.9 mph SSW6.3 kmh SSW 5.8 mph9.3 kmh 30.06 in1017.9 mb 0.00 in0.0 mm 0.00 in0.0 mm 0.00 in0.0 mm
06:14 PM 64.6°F18.1°C 36.8°F2.7°C 36% 3.8 mph N6.1 kmh N 6.2 mph10.0 kmh 30.06 in1017.9 mb 0.00 in0.0 mm 0.00 in0.0 mm 0.00 in0.0 mm
06:19 PM 64.9°F18.3°C 37.1°F2.8°C 36% 3.9 mph SE6.3 kmh SE 5.8 mph9.3 kmh 30.06 in1017.9 mb 0.00 in0.0 mm 0.00 in0.0 mm 0.00 in0.0 mm
06:24 PM 65.5°F18.6°C 37.6°F3.1°C 36% 2.6 mph ESE4.2 kmh ESE 5.4 mph8.7 kmh 30.06 in1017.9 mb 0.00 in0.0 mm 0.00 in0.0 mm 0.00 in0.0 mm
06:29 PM 64.7°F18.2°C 36.9°F2.7°C 36% Calm Calm 5.4 mph8.7 kmh 30.06 in1017.9 mb 0.00 in0.0 mm 0.00 in0.0 mm 0.00 in0.0 mm
06:34 PM 64.4°F18.0°C 36.6°F2.6°C 36% Calm Calm 4.0 mph6.4 kmh 30.06 in1017.9 mb 0.00 in0.0 mm 0.00 in0.0 mm 0.00 in0.0 mm
06:39 PM 63.8°F17.7°C 36.8°F2.7°C 37% 2.5 mph ESE4.0 kmh ESE 3.2 mph5.1 kmh 30.06 in1017.9 mb 0.00 in0.0 mm 0.00 in0.0 mm 0.00 in0.0 mm
06:44 PM 62.9°F17.2°C 36.0°F2.2°C 37% 4.8 mph ESE7.7 kmh ESE 5.8 mph9.3 kmh 30.06 in1017.9 mb 0.00 in0.0 mm 0.00 in0.0 mm 0.00 in0.0 mm
06:49 PM 62.4°F16.9°C 35.6°F2.0°C 37% 3.2 mph E5.1 kmh E 6.2 mph10.0 kmh 30.06 in1017.9 mb 0.00 in0.0 mm 0.00 in0.0 mm 0.00 in0.0 mm
06:54 PM 62.0°F16.7°C 35.2°F1.8°C 37% 3.6 mph NE5.8 kmh NE 6.2 mph10.0 kmh 30.06 in1017.9 mb 0.00 in0.0 mm 0.00 in0.0 mm 0.00 in0.0 mm
06:59 PM 61.7°F16.5°C 34.9°F1.6°C 37% 5.1 mph ENE8.2 kmh ENE 8.6 mph13.8 kmh 30.06 in1017.9 mb 0.00 in0.0 mm 0.00 in0.0 mm 0.00 in0.0 mm
07:05 PM 61.3°F16.3°C 35.3°F1.8°C 38% 3.9 mph E6.3 kmh E 8.6 mph13.8 kmh 30.06 in1017.9 mb 0.00 in0.0 mm 0.00 in0.0 mm 0.00 in0.0 mm
07:10 PM 61.0°F16.1°C 35.0°F1.7°C 38% 2.6 mph ESE4.2 kmh ESE 8.6 mph13.8 kmh 30.06 in1017.9 mb 0.00 in0.0 mm 0.00 in0.0 mm 0.00 in0.0 mm
07:15 PM 60.8°F16.0°C 34.8°F1.6°C 38% 2.8 mph ESE4.5 kmh ESE 6.2 mph10.0 kmh 30.06 in1017.9 mb 0.00 in0.0 mm 0.00 in0.0 mm 0.00 in0.0 mm
07:20 PM 60.6°F15.9°C 34.6°F1.4°C 38% 2.9 mph E4.7 kmh E 5.0 mph8.0 kmh 30.06 in1017.9 mb 0.00 in0.0 mm 0.00 in0.0 mm 0.00 in0.0 mm
07:25 PM 60.2°F15.7°C 34.9°F1.6°C 39% 3.7 mph E6.0 kmh E 5.4 mph8.7 kmh 30.06 in1017.9 mb 0.00 in0.0 mm 0.00 in0.0 mm 0.00 in0.0 mm
07:30 PM 59.9°F15.5°C 34.7°F1.5°C 39% 2.2 mph E3.5 kmh E 5.4 mph8.7 kmh 30.06 in1017.9 mb 0.00 in0.0 mm 0.00 in0.0 mm 0.00 in0.0 mm
07:35 PM 59.6°F15.3°C 34.3°F1.3°C 39% 2.8 mph E4.5 kmh E 5.4 mph8.7 kmh 30.06 in1017.9 mb 0.00 in0.0 mm 0.00 in0.0 mm 0.00 in0.0 mm
07:40 PM 59.1°F15.1°C 33.9°F1.1°C 39% Calm Calm 4.4 mph7.1 kmh 30.06 in1017.9 mb 0.00 in0.0 mm 0.00 in0.0 mm 0.00 in0.0 mm
07:46 PM 58.4°F14.7°C 33.9°F1.1°C 40% Calm Calm 1.8 mph2.9 kmh 30.06 in1017.9 mb 0.00 in0.0 mm 0.00 in0.0 mm 0.00 in0.0 mm
07:51 PM 57.8°F14.3°C 33.4°F0.8°C 40% Calm Calm -- 30.06 in1017.9 mb 0.00 in0.0 mm 0.00 in0.0 mm 0.00 in0.0 mm
07:58 PM 57.1°F13.9°C 33.4°F0.8°C 41% Calm Calm -- 30.06 in1017.9 mb 0.00 in0.0 mm 0.00 in0.0 mm 0.00 in0.0 mm
08:03 PM 56.6°F13.7°C 33.5°F0.8°C 42% Calm Calm -- 30.06 in1017.9 mb 0.00 in0.0 mm 0.00 in0.0 mm 0.00 in0.0 mm
08:08 PM 56.0°F13.3°C 33.0°F0.6°C 42% Calm Calm -- 30.06 in1017.9 mb 0.00 in0.0 mm 0.00 in0.0 mm 0.00 in0.0 mm
08:13 PM 55.3°F12.9°C 33.5°F0.8°C 44% Calm Calm -- 30.06 in1017.9 mb 0.00 in0.0 mm 0.00 in0.0 mm 0.00 in0.0 mm
08:18 PM 54.8°F12.7°C 33.7°F0.9°C 45% Calm Calm -- 30.06 in1017.9 mb 0.00 in0.0 mm 0.00 in0.0 mm 0.00 in0.0 mm
08:23 PM 54.0°F12.2°C 33.5°F0.8°C 46% Calm Calm -- 30.06 in1017.9 mb 0.00 in0.0 mm 0.00 in0.0 mm 0.00 in0.0 mm
08:29 PM 53.7°F12.1°C 33.8°F1.0°C 47% Calm Calm -- 30.06 in1017.9 mb 0.00 in0.0 mm 0.00 in0.0 mm 0.00 in0.0 mm
08:34 PM 53.3°F11.8°C 34.5°F1.4°C 49% Calm Calm -- 30.06 in1017.9 mb 0.00 in0.0 mm 0.00 in0.0 mm 0.00 in0.0 mm
08:39 PM 53.0°F11.7°C 34.7°F1.5°C 50% Calm Calm -- 30.09 in1019.0 mb 0.00 in0.0 mm 0.00 in0.0 mm 0.00 in0.0 mm
08:44 PM 52.6°F11.4°C 34.9°F1.6°C 51% Calm Calm -- 30.09 in1019.0 mb 0.00 in0.0 mm 0.00 in0.0 mm 0.00 in0.0 mm
08:50 PM 52.1°F11.2°C 34.4°F1.3°C 51% Calm Calm -- 30.09 in1019.0 mb 0.00 in0.0 mm 0.00 in0.0 mm 0.00 in0.0 mm
08:55 PM 51.9°F11.1°C 34.7°F1.5°C 52% Calm Calm -- 30.09 in1019.0 mb 0.00 in0.0 mm 0.00 in0.0 mm 0.00 in0.0 mm
09:00 PM 51.5°F10.8°C 34.9°F1.6°C 53% Calm Calm -- 30.09 in1019.0 mb 0.00 in0.0 mm 0.00 in0.0 mm 0.00 in0.0 mm
09:05 PM 51.3°F10.7°C 34.7°F1.5°C 53% Calm Calm -- 30.09 in1019.0 mb 0.00 in0.0 mm 0.00 in0.0 mm 0.00 in0.0 mm
09:10 PM 51.0°F10.6°C 34.4°F1.3°C 53% Calm Calm -- 30.09 in1019.0 mb 0.00 in0.0 mm 0.00 in0.0 mm 0.00 in0.0 mm
09:15 PM 50.8°F10.4°C 35.2°F1.8°C 55% Calm Calm -- 30.09 in1019.0 mb 0.00 in0.0 mm 0.00 in0.0 mm 0.00 in0.0 mm
09:20 PM 50.6°F10.3°C 35.4°F1.9°C 56% Calm Calm -- 30.09 in1019.0 mb 0.00 in0.0 mm 0.00 in0.0 mm 0.00 in0.0 mm
09:25 PM 50.3°F10.2°C 36.1°F2.3°C 58% Calm Calm -- 30.09 in1019.0 mb 0.00 in0.0 mm 0.00 in0.0 mm 0.00 in0.0 mm
09:32 PM 49.7°F9.8°C 35.5°F1.9°C 58% Calm Calm -- 30.09 in1019.0 mb 0.00 in0.0 mm 0.00 in0.0 mm 0.00 in0.0 mm
09:37 PM 49.5°F9.7°C 36.2°F2.3°C 60% Calm Calm -- 30.09 in1019.0 mb 0.00 in0.0 mm 0.00 in0.0 mm 0.00 in0.0 mm
09:42 PM 49.4°F9.7°C 36.1°F2.3°C 60% Calm Calm -- 30.09 in1019.0 mb 0.00 in0.0 mm 0.00 in0.0 mm 0.00 in0.0 mm
09:47 PM 49.0°F9.4°C 36.1°F2.3°C 61% Calm Calm -- 30.09 in1019.0 mb 0.00 in0.0 mm 0.00 in0.0 mm 0.00 in0.0 mm
09:52 PM 48.6°F9.2°C 35.3°F1.8°C 60% Calm Calm -- 30.06 in1017.9 mb 0.00 in0.0 mm 0.00 in0.0 mm 0.00 in0.0 mm
09:57 PM 48.5°F9.2°C 35.7°F2.1°C 61% Calm Calm -- 30.06 in1017.9 mb 0.00 in0.0 mm 0.00 in0.0 mm 0.00 in0.0 mm
10:02 PM 48.3°F9.1°C 35.5°F1.9°C 61% Calm Calm -- 30.06 in1017.9 mb 0.00 in0.0 mm 0.00 in0.0 mm 0.00 in0.0 mm
10:07 PM 48.3°F9.1°C 35.9°F2.2°C 62% Calm Calm -- 30.06 in1017.9 mb 0.00 in0.0 mm 0.00 in0.0 mm 0.00 in0.0 mm
10:12 PM 47.9°F8.8°C 37.5°F3.1°C 67% Calm Calm -- 30.06 in1017.9 mb 0.00 in0.0 mm 0.00 in0.0 mm 0.00 in0.0 mm
10:17 PM 47.9°F8.8°C 37.9°F3.3°C 68% Calm Calm -- 30.06 in1017.9 mb 0.00 in0.0 mm 0.00 in0.0 mm 0.00 in0.0 mm
10:23 PM 47.9°F8.8°C 37.5°F3.1°C 67% Calm Calm -- 30.09 in1019.0 mb 0.00 in0.0 mm 0.00 in0.0 mm 0.00 in0.0 mm
10:28 PM 47.9°F8.8°C 37.1°F2.8°C 66% Calm Calm -- 30.09 in1019.0 mb 0.00 in0.0 mm 0.00 in0.0 mm 0.00 in0.0 mm
10:33 PM 48.1°F8.9°C 36.9°F2.7°C 65% Calm Calm -- 30.09 in1019.0 mb 0.00 in0.0 mm 0.00 in0.0 mm 0.00 in0.0 mm
10:38 PM 48.5°F9.2°C 37.3°F2.9°C 65% 2.7 mph ENE4.3 kmh ENE 3.2 mph5.1 kmh 30.09 in1019.0 mb 0.00 in0.0 mm 0.00 in0.0 mm 0.00 in0.0 mm
10:44 PM 48.6°F9.2°C 37.0°F2.8°C 64% 3.1 mph ENE5.0 kmh ENE 4.0 mph6.4 kmh 30.09 in1019.0 mb 0.00 in0.0 mm 0.00 in0.0 mm 0.00 in0.0 mm
10:49 PM 48.6°F9.2°C 37.4°F3.0°C 65% Calm Calm 4.0 mph6.4 kmh 30.09 in1019.0 mb 0.00 in0.0 mm 0.00 in0.0 mm 0.00 in0.0 mm
10:54 PM 48.8°F9.3°C 38.0°F3.3°C 66% Calm Calm 3.2 mph5.1 kmh 30.09 in1019.0 mb 0.00 in0.0 mm 0.00 in0.0 mm 0.00 in0.0 mm
10:59 PM 49.0°F9.4°C 38.2°F3.4°C 66% Calm Calm -- 30.09 in1019.0 mb 0.00 in0.0 mm 0.00 in0.0 mm 0.00 in0.0 mm
11:04 PM 49.2°F9.6°C 39.1°F3.9°C 68% Calm Calm -- 30.09 in1019.0 mb 0.00 in0.0 mm 0.00 in0.0 mm 0.00 in0.0 mm
11:09 PM 49.2°F9.6°C 38.7°F3.7°C 67% Calm Calm -- 30.09 in1019.0 mb 0.00 in0.0 mm 0.00 in0.0 mm 0.00 in0.0 mm
11:14 PM 49.0°F9.4°C 39.3°F4.1°C 69% 2.3 mph ENE3.7 kmh ENE 2.6 mph4.2 kmh 30.09 in1019.0 mb 0.00 in0.0 mm 0.00 in0.0 mm 0.00 in0.0 mm
11:19 PM 49.0°F9.4°C 39.3°F4.1°C 69% Calm Calm 2.6 mph4.2 kmh 30.09 in1019.0 mb 0.00 in0.0 mm 0.00 in0.0 mm 0.00 in0.0 mm
11:24 PM 49.0°F9.4°C 39.7°F4.3°C 70% Calm Calm 2.2 mph3.5 kmh 30.09 in1019.0 mb 0.00 in0.0 mm 0.00 in0.0 mm 0.00 in0.0 mm
11:29 PM 49.0°F9.4°C 40.0°F4.4°C 71% 1.9 mph ENE3.1 kmh ENE 2.6 mph4.2 kmh 30.09 in1019.0 mb 0.00 in0.0 mm 0.00 in0.0 mm 0.00 in0.0 mm
11:34 PM 48.8°F9.3°C 39.5°F4.2°C 70% 2.4 mph ENE3.9 kmh ENE 2.6 mph4.2 kmh 30.09 in1019.0 mb 0.00 in0.0 mm 0.00 in0.0 mm 0.00 in0.0 mm
11:39 PM 48.6°F9.2°C 40.0°F4.4°C 72% 2.6 mph NNW4.2 kmh NNW 4.4 mph7.1 kmh 30.09 in1019.0 mb 0.00 in0.0 mm 0.00 in0.0 mm 0.00 in0.0 mm
11:44 PM 48.6°F9.2°C 40.7°F4.8°C 74% Calm Calm 4.4 mph7.1 kmh 30.09 in1019.0 mb 0.00 in0.0 mm 0.00 in0.0 mm 0.00 in0.0 mm
11:49 PM 48.5°F9.2°C 40.6°F4.8°C 74% 4.7 mph N7.6 kmh N 5.4 mph8.7 kmh 30.09 in1019.0 mb 0.00 in0.0 mm 0.00 in0.0 mm 0.00 in0.0 mm
11:55 PM 48.6°F9.2°C 41.4°F5.2°C 76% 3.6 mph NNE5.8 kmh NNE 5.4 mph8.7 kmh 30.09 in1019.0 mb 0.00 in0.0 mm 0.00 in0.0 mm 0.00 in0.0 mm